Time;durP1;ratioP1;P1;durP2;ratioP2;P2;SDS_P1;SDS_P2;PMS_P1;PMS_P2;Temp;Humidity;BMP_temperature;BMP_pressure;BME280_temperature;BME280_humidity;BME280_pressure;Samples;Min_cycle;Max_cycle;Signal;HPM_P1;HPM_P2
2020/12/28 00:01:58;;;;;;;;;;;;;;;18.75;24.15;97239.97;4989646;28;19933;-68
2020/12/28 00:04:25;;;;;;;;;;;;;;;18.81;24.20;97250.78;4989995;28;19980;-67
2020/12/28 00:06:51;;;;;;;;;;;;;;;18.84;24.28;97236.31;4981232;28;20021;-67
2020/12/28 00:09:17;;;;;;;;;;;;;;;18.89;24.32;97247.13;4985096;28;20012;-68
2020/12/28 00:11:44;;;;;;;;;;;;;;;18.87;24.20;97249.41;4989633;28;19929;-67
2020/12/28 00:14:10;;;;;;;;;;;;;;;18.90;24.34;97254.25;4989069;28;19932;-67
2020/12/28 00:16:36;;;;;;;;;;;;;;;19.00;24.16;97264.84;4989468;28;19932;-67
2020/12/28 00:19:02;;;;;;;;;;;;;;;19.05;24.17;97259.13;5005757;28;19988;-67
2020/12/28 00:21:29;;;;;;;;;;;;;;;19.10;24.20;97258.88;4990524;28;20353;-67
2020/12/28 00:23:55;;;;;;;;;;;;;;;19.15;24.11;97264.16;4989827;28;19926;-68
2020/12/28 00:26:21;;;;;;;;;;;;;;;19.22;24.04;97264.41;4989179;28;19941;-67
2020/12/28 00:28:47;;;;;;;;;;;;;;;19.28;24.05;97263.03;4989522;28;19933;-68
2020/12/28 00:31:14;;;;;;;;;;;;;;;19.29;24.06;97256.34;4989602;28;19972;-68
2020/12/28 00:33:42;;;;;;;;;;;;;;;19.38;24.07;97262.56;4972608;28;19926;-68
2020/12/28 00:36:08;;;;;;;;;;;;;;;19.39;23.93;97253.13;4991002;28;20348;-67
2020/12/28 00:38:34;;;;;;;;;;;;;;;19.38;23.94;97268.09;4989538;28;20442;-67
2020/12/28 00:41:01;;;;;;;;;;;;;;;19.46;23.86;97258.06;4990177;28;19953;-68
2020/12/28 00:43:27;;;;;;;;;;;;;;;19.50;23.92;97249.88;4974319;28;20110;-67
2020/12/28 00:45:54;;;;;;;;;;;;;;;19.53;23.92;97252.78;4991393;28;19951;-66
2020/12/28 00:48:20;;;;;;;;;;;;;;;19.56;23.76;97259.59;5006394;28;20404;-67
2020/12/28 00:50:48;;;;;;;;;;;;;;;19.58;23.75;97260.03;5006240;28;20315;-66
2020/12/28 00:53:15;;;;;;;;;;;;;;;19.57;24.02;97264.75;4990415;28;20480;-67
2020/12/28 00:55:41;;;;;;;;;;;;;;;19.58;23.83;97260.03;5005875;28;19976;-67
2020/12/28 00:58:07;;;;;;;;;;;;;;;19.60;23.97;97247.50;4989809;28;19965;-67
2020/12/28 01:00:34;;;;;;;;;;;;;;;19.60;23.66;97247.50;4975802;28;19930;-67
2020/12/28 01:03:04;;;;;;;;;;;;;;;19.60;24.01;97250.25;4977595;28;19971;-67
2020/12/28 01:06:05;;;;;;;;;;;;;;;19.63;24.04;97234.94;4994359;28;20392;-68
2020/12/28 01:08:32;;;;;;;;;;;;;;;19.61;23.63;97226.19;5009967;28;20308;-67
2020/12/28 01:10:59;;;;;;;;;;;;;;;19.53;23.45;97238.19;5009305;28;19930;-67
2020/12/28 01:13:25;;;;;;;;;;;;;;;19.43;23.52;97223.66;5009430;28;19980;-67
2020/12/28 01:15:55;;;;;;;;;;;;;;;19.35;23.53;97196.97;4992911;28;19962;-66
2020/12/28 01:18:25;;;;;;;;;;;;;;;19.22;23.54;97191.81;4989751;28;20004;-68
2020/12/28 01:20:56;;;;;;;;;;;;;;;19.11;23.42;97179.63;4975207;28;20028;-68
2020/12/28 01:23:25;;;;;;;;;;;;;;;19.35;23.06;97158.31;4998276;28;19926;-68
2020/12/28 01:25:59;;;;;;;;;;;;;;;19.70;22.60;97157.81;4976779;28;19930;-68
2020/12/28 01:28:30;;;;;;;;;;;;;;;18.97;23.51;97164.22;4987742;28;19934;-68
2020/12/28 01:30:57;;;;;;;;;;;;;;;18.91;23.68;97167.56;4965002;28;19949;-67
2020/12/28 01:33:42;;;;;;;;;;;;;;;18.78;23.88;97169.50;4980895;28;19926;-66
2020/12/28 01:36:08;;;;;;;;;;;;;;;18.69;24.03;97163.31;4973664;28;20025;-67
2020/12/28 01:38:39;;;;;;;;;;;;;;;18.71;24.19;97161.00;4987880;28;20530;-67
2020/12/28 01:41:06;;;;;;;;;;;;;;;18.74;24.05;97168.56;4984687;28;19976;-68
2020/12/28 01:43:42;;;;;;;;;;;;;;;18.77;24.00;97165.13;4992529;28;19952;-66
2020/12/28 01:46:10;;;;;;;;;;;;;;;18.79;24.12;97157.31;5008943;28;19936;-67
2020/12/28 01:48:40;;;;;;;;;;;;;;;18.85;24.02;97149.63;4977090;28;19930;-70
2020/12/28 01:51:08;;;;;;;;;;;;;;;18.88;24.10;97159.97;4976280;28;19987;-67
2020/12/28 01:53:37;;;;;;;;;;;;;;;18.94;24.08;97158.59;4976504;28;19932;-67
2020/12/28 01:56:09;;;;;;;;;;;;;;;18.95;24.12;97151.91;4977185;28;19926;-67
2020/12/28 01:58:40;;;;;;;;;;;;;;;18.98;24.06;97154.81;4976867;28;19932;-68
2020/12/28 02:01:08;;;;;;;;;;;;;;;19.00;23.94;97149.75;4976483;28;19932;-67
2020/12/28 02:03:36;;;;;;;;;;;;;;;18.99;24.07;97139.84;4992562;28;19926;-67
2020/12/28 02:06:17;;;;;;;;;;;;;;;18.97;24.02;97141.34;4974933;28;19926;-65
2020/12/28 02:08:44;;;;;;;;;;;;;;;18.95;23.95;97147.22;4983513;28;19926;-67
2020/12/28 02:11:10;;;;;;;;;;;;;;;18.93;24.05;97123.88;4991249;28;20036;-67
2020/12/28 02:13:37;;;;;;;;;;;;;;;18.90;24.10;97130.88;5008062;28;19929;-68
2020/12/28 02:16:32;;;;;;;;;;;;;;;18.88;23.99;97129.63;4999874;28;19926;-67
2020/12/28 02:19:06;;;;;;;;;;;;;;;18.86;23.98;97129.16;4975159;28;19926;-68
2020/12/28 02:21:35;;;;;;;;;;;;;;;18.78;24.08;97124.56;4991436;28;20422;-66
2020/12/28 02:24:01;;;;;;;;;;;;;;;18.72;24.09;97116.50;4972338;28;19926;-67
2020/12/28 02:26:30;;;;;;;;;;;;;;;18.67;24.16;97110.44;4991081;28;19929;-67
2020/12/28 02:28:58;;;;;;;;;;;;;;;18.73;24.23;97115.34;4999914;28;20228;-68
2020/12/28 02:31:25;;;;;;;;;;;;;;;18.76;24.37;97122.13;5005924;28;20028;-68
2020/12/28 02:34:14;;;;;;;;;;;;;;;18.83;24.20;97113.28;4978921;28;19926;-67
2020/12/28 02:36:49;;;;;;;;;;;;;;;18.79;24.23;97109.59;4991196;28;20304;-68
2020/12/28 02:39:15;;;;;;;;;;;;;;;18.73;24.19;97093.28;4989676;28;19940;-67
2020/12/28 02:41:42;;;;;;;;;;;;;;;18.69;24.41;97097.09;4990637;28;19954;-67
2020/12/28 02:44:26;;;;;;;;;;;;;;;18.59;24.48;97090.06;4991032;28;20462;-68
2020/12/28 02:47:11;;;;;;;;;;;;;;;18.63;24.38;97085.50;4991151;28;19925;-65
2020/12/28 02:49:57;;;;;;;;;;;;;;;18.59;24.54;97084.53;4992313;28;19929;-67
2020/12/28 02:52:45;;;;;;;;;;;;;;;18.55;24.57;97100.16;4992526;28;19925;-68
2020/12/28 02:55:30;;;;;;;;;;;;;;;18.61;24.64;97101.56;4973276;28;20086;-66
2020/12/28 02:58:14;;;;;;;;;;;;;;;18.61;24.58;97101.56;4981780;28;20393;-67
2020/12/28 03:00:59;;;;;;;;;;;;;;;18.64;24.50;97095.38;4989569;28;19930;-67
2020/12/28 03:03:44;;;;;;;;;;;;;;;18.62;24.46;97094.91;4967926;28;19933;-67
2020/12/28 03:06:29;;;;;;;;;;;;;;;18.61;24.43;97087.78;4991124;28;20027;-67
2020/12/28 03:09:14;;;;;;;;;;;;;;;18.43;24.67;97094.63;4992055;28;20304;-68
2020/12/28 03:11:59;;;;;;;;;;;;;;;18.49;24.55;97095.22;4979260;28;19956;-68
2020/12/28 03:14:44;;;;;;;;;;;;;;;18.43;24.74;97091.88;5004913;28;19932;-67
2020/12/28 03:17:28;;;;;;;;;;;;;;;18.47;24.52;97079.00;4991929;28;20304;-67
2020/12/28 03:20:13;;;;;;;;;;;;;;;18.41;24.78;97070.16;4992057;28;19926;-68
2020/12/28 03:22:58;;;;;;;;;;;;;;;18.47;24.59;97059.72;4990439;28;19933;-67
2020/12/28 03:25:43;;;;;;;;;;;;;;;18.42;24.81;97051.66;4991958;28;19926;-68
2020/12/28 03:28:28;;;;;;;;;;;;;;;18.38;24.78;97046.03;4992234;28;20343;-68
2020/12/28 03:31:13;;;;;;;;;;;;;;;18.38;24.91;97047.97;4991611;28;20411;-68
2020/12/28 03:33:58;;;;;;;;;;;;;;;18.39;24.76;97039.38;4981846;28;19961;-68
2020/12/28 03:36:43;;;;;;;;;;;;;;;18.42;24.76;97029.59;4984907;28;19926;-67
2020/12/28 03:39:27;;;;;;;;;;;;;;;18.44;24.89;97030.06;4972266;28;19926;-68
2020/12/28 03:42:12;;;;;;;;;;;;;;;18.52;24.57;97031.91;4964950;28;19925;-67
2020/12/28 03:45:07;;;;;;;;;;;;;;;18.51;24.75;97027.53;4953323;28;19931;-68
2020/12/28 03:47:52;;;;;;;;;;;;;;;18.54;24.77;97028.78;4987980;28;19980;-67
2020/12/28 03:50:37;;;;;;;;;;;;;;;18.52;24.78;97020.88;5003536;28;19933;-68
2020/12/28 03:53:22;;;;;;;;;;;;;;;18.48;24.73;96995.13;4989430;28;19933;-68
2020/12/28 03:56:07;;;;;;;;;;;;;;;18.37;24.99;96994.78;4991590;28;19932;-69
2020/12/28 03:58:52;;;;;;;;;;;;;;;18.30;25.06;96989.06;4976601;28;20441;-66
2020/12/28 04:01:36;;;;;;;;;;;;;;;18.34;24.92;96990.00;4984785;28;19926;-67
2020/12/28 04:04:21;;;;;;;;;;;;;;;18.32;25.21;96983.22;4986954;28;19933;-67
2020/12/28 04:07:06;;;;;;;;;;;;;;;18.33;25.14;96988.38;4991437;28;20424;-68
2020/12/28 04:09:51;;;;;;;;;;;;;;;18.39;25.05;96989.72;4991307;28;19925;-67
2020/12/28 04:12:36;;;;;;;;;;;;;;;18.44;24.97;96980.41;5006558;28;19933;-65
2020/12/28 04:15:02;;;;;;;;;;;;;;;18.49;25.02;96971.13;4991264;28;19926;-66
2020/12/28 04:17:28;;;;;;;;;;;;;;;18.51;25.06;96972.38;4991396;28;20435;-67
2020/12/28 04:19:55;;;;;;;;;;;;;;;18.56;24.88;96983.16;4989758;28;20462;-66
2020/12/28 04:22:21;;;;;;;;;;;;;;;18.58;24.89;96974.56;4990202;28;19992;-67
2020/12/28 04:24:47;;;;;;;;;;;;;;;18.57;24.91;96968.22;4989891;28;20415;-67
2020/12/28 04:27:13;;;;;;;;;;;;;;;18.61;24.95;96973.88;4991044;28;19958;-67
2020/12/28 04:29:39;;;;;;;;;;;;;;;18.58;24.83;96972.59;5006003;28;19936;-68
2020/12/28 04:32:06;;;;;;;;;;;;;;;18.59;24.86;96967.88;4973793;28;19926;-67
2020/12/28 04:34:32;;;;;;;;;;;;;;;18.56;25.02;96976.84;4990515;28;19926;-68
2020/12/28 04:36:58;;;;;;;;;;;;;;;18.45;25.06;96972.94;4995187;28;19926;-68
2020/12/28 04:39:24;;;;;;;;;;;;;;;18.45;25.11;96971.00;4993722;28;19925;-68
2020/12/28 04:41:51;;;;;;;;;;;;;;;18.49;25.22;96971.13;4993340;28;19925;-67
2020/12/28 04:44:17;;;;;;;;;;;;;;;18.48;25.02;96967.56;4994055;28;20335;-67
2020/12/28 04:46:43;;;;;;;;;;;;;;;18.50;24.95;96969.97;4989504;28;20344;-68
2020/12/28 04:49:10;;;;;;;;;;;;;;;18.53;25.12;96956.28;4993200;28;20024;-68
2020/12/28 04:51:36;;;;;;;;;;;;;;;18.53;25.13;96944.44;4993777;28;20396;-68
2020/12/28 04:54:02;;;;;;;;;;;;;;;18.52;25.09;96937.31;4992817;28;20367;-68
2020/12/28 04:56:28;;;;;;;;;;;;;;;18.52;25.20;96932.63;4991442;28;19932;-67
2020/12/28 04:58:54;;;;;;;;;;;;;;;18.57;25.05;96937.09;4985972;28;19980;-68
2020/12/28 05:01:21;;;;;;;;;;;;;;;18.55;25.09;96947.66;4989973;28;19936;-68
2020/12/28 05:03:48;;;;;;;;;;;;;;;18.58;25.14;96953.28;4989087;28;20020;-67
2020/12/28 05:06:15;;;;;;;;;;;;;;;18.59;25.15;96946.63;4990076;28;19933;-68
2020/12/28 05:08:44;;;;;;;;;;;;;;;18.60;25.09;96945.50;4993021;28;19940;-69
2020/12/28 05:11:12;;;;;;;;;;;;;;;18.62;25.18;96948.72;5028600;23;20918;-61
2020/12/28 05:13:40;;;;;;;;;;;;;;;18.65;25.11;96955.50;4993793;28;19945;-61
2020/12/28 05:16:06;;;;;;;;;;;;;;;18.66;25.10;96955.16;4995105;28;19933;-62
2020/12/28 05:18:33;;;;;;;;;;;;;;;18.69;25.09;96951.69;4995581;28;20024;-61
2020/12/28 05:20:59;;;;;;;;;;;;;;;18.70;25.02;96949.75;5026609;28;19925;-63
2020/12/28 05:23:26;;;;;;;;;;;;;;;18.66;25.05;96944.13;5026708;28;19961;-62
2020/12/28 05:25:53;;;;;;;;;;;;;;;18.66;25.12;96946.88;4995335;28;19932;-61
2020/12/28 05:28:25;;;;;;;;;;;;;;;18.67;25.11;96940.22;4995292;28;19973;-62
2020/12/28 05:30:52;;;;;;;;;;;;;;;18.66;25.09;96944.13;4995086;28;19926;-61
2020/12/28 05:33:19;;;;;;;;;;;;;;;18.66;25.21;96937.78;4994952;28;20017;-61
2020/12/28 05:35:45;;;;;;;;;;;;;;;18.66;25.22;96938.59;4994999;28;19926;-61
2020/12/28 05:38:26;;;;;;;;;;;;;;;18.67;25.16;96934.69;5089248;27;19917;-61
2020/12/28 05:41:05;;;;;;;;;;;;;;;18.68;25.14;96928.03;5116191;28;20015;-61
2020/12/28 05:43:31;;;;;;;;;;;;;;;18.69;25.23;96920.56;5069172;28;20410;-60
2020/12/28 05:45:58;;;;;;;;;;;;;;;18.69;25.23;96920.56;5068808;28;19924;-60
2020/12/28 05:48:24;;;;;;;;;;;;;;;18.69;25.27;96909.50;5067704;28;20017;-60
2020/12/28 05:50:57;;;;;;;;;;;;;;;18.69;25.25;96909.50;5069313;28;19975;-61
2020/12/28 05:53:26;;;;;;;;;;;;;;;18.69;25.23;96910.31;5067832;28;20386;-61
2020/12/28 05:55:53;;;;;;;;;;;;;;;18.72;25.14;96909.59;5068010;28;19926;-60
2020/12/28 05:58:20;;;;;;;;;;;;;;;18.73;25.15;96913.16;5068962;28;20295;-60
2020/12/28 06:00:48;;;;;;;;;;;;;;;18.74;25.18;96907.28;5067492;28;20414;-61
2020/12/28 06:03:18;;;;;;;;;;;;;;;18.78;25.09;96903.81;5067937;28;19924;-60
2020/12/28 06:05:44;;;;;;;;;;;;;;;18.77;25.22;96902.22;5068264;28;20063;-60
2020/12/28 06:08:10;;;;;;;;;;;;;;;18.77;25.12;96910.50;5067755;28;19929;-61
2020/12/28 06:10:36;;;;;;;;;;;;;;;18.71;25.15;96907.97;5068711;28;20023;-63
2020/12/28 06:13:02;;;;;;;;;;;;;;;18.70;25.22;96909.16;5071174;28;19925;-59
2020/12/28 06:15:29;;;;;;;;;;;;;;;18.66;25.25;96922.03;5073061;28;19983;-62
2020/12/28 06:17:55;;;;;;;;;;;;;;;18.66;25.31;96916.53;5063623;28;20040;-61
2020/12/28 06:20:28;;;;;;;;;;;;;;;18.68;25.38;96918.94;5050309;28;20306;-61
2020/12/28 06:23:01;;;;;;;;;;;;;;;18.71;25.30;96918.25;5066460;28;19925;-61
2020/12/28 06:25:28;;;;;;;;;;;;;;;18.75;25.40;96925.44;5064198;28;19971;-61
2020/12/28 06:27:55;;;;;;;;;;;;;;;18.80;25.14;96938.19;5064320;28;20457;-61
2020/12/28 06:30:22;;;;;;;;;;;;;;;18.80;25.13;96927.16;5068629;28;19931;-61
2020/12/28 06:33:00;;;;;;;;;;;;;;;18.78;25.31;96929.47;5068527;28;19925;-61
2020/12/28 06:35:29;;;;;;;;;;;;;;;18.79;25.32;96941.31;5050914;28;20137;-62
2020/12/28 06:37:58;;;;;;;;;;;;;;;18.77;25.32;96951.88;5066744;28;19925;-60
2020/12/28 06:40:31;;;;;;;;;;;;;;;18.75;25.32;96960.50;5066765;28;19929;-63
2020/12/28 06:43:07;;;;;;;;;;;;;;;18.73;25.33;96971.09;5068370;28;20452;-61
2020/12/28 06:45:33;;;;;;;;;;;;;;;18.70;25.37;96971.81;5068063;28;19925;-60
2020/12/28 06:48:00;;;;;;;;;;;;;;;18.69;25.43;96979.28;5063234;28;19931;-61
2020/12/28 06:50:26;;;;;;;;;;;;;;;18.68;25.35;96985.16;5054874;28;19951;-61
2020/12/28 06:52:52;;;;;;;;;;;;;;;18.67;25.47;96983.53;5054612;28;19925;-60
2020/12/28 06:55:21;;;;;;;;;;;;;;;18.68;25.39;96974.91;5045739;28;19925;-61
2020/12/28 06:57:47;;;;;;;;;;;;;;;18.66;25.39;96977.22;5054479;28;19970;-61
2020/12/28 07:00:20;;;;;;;;;;;;;;;18.65;25.47;96974.81;5042633;28;19964;-61
2020/12/28 07:02:48;;;;;;;;;;;;;;;18.62;25.47;96976.31;5040383;28;19935;-62
2020/12/28 07:05:18;;;;;;;;;;;;;;;18.64;25.51;96974.00;5036742;28;19925;-62
2020/12/28 07:07:45;;;;;;;;;;;;;;;18.63;25.50;96972.41;5052750;28;19925;-62
2020/12/28 07:10:14;;;;;;;;;;;;;;;18.63;25.38;96969.63;5043151;28;19967;-60
2020/12/28 07:12:40;;;;;;;;;;;;;;;18.65;25.57;96970.09;5052066;28;19933;-61
2020/12/28 07:15:06;;;;;;;;;;;;;;;18.66;25.52;96966.19;5054073;28;20471;-62
2020/12/28 07:17:32;;;;;;;;;;;;;;;18.68;25.59;96968.59;5044839;28;19931;-61
2020/12/28 07:19:59;;;;;;;;;;;;;;;18.73;25.49;96966.38;5053538;28;19960;-61
2020/12/28 07:22:25;;;;;;;;;;;;;;;18.75;25.64;96969.59;5052668;28;20207;-62
2020/12/28 07:24:52;;;;;;;;;;;;;;;18.87;25.74;96970.72;5053719;28;19960;-62
2020/12/28 07:27:19;;;;;;;;;;;;;;;18.93;25.51;96963.81;5053806;28;20478;-61
2020/12/28 07:29:45;;;;;;;;;;;;;;;18.93;25.56;96966.56;5054223;28;19925;-61
2020/12/28 07:32:11;;;;;;;;;;;;;;;18.93;25.51;96948.03;5052563;28;20223;-62
2020/12/28 07:34:37;;;;;;;;;;;;;;;18.90;25.44;96954.25;5053208;28;19975;-61
2020/12/28 07:37:03;;;;;;;;;;;;;;;18.86;25.46;96952.56;5061193;28;20011;-61
2020/12/28 07:39:30;;;;;;;;;;;;;;;18.81;25.58;96950.84;5055730;28;19925;-62
2020/12/28 07:41:59;;;;;;;;;;;;;;;18.82;25.56;96959.91;5056141;28;19963;-61
2020/12/28 07:44:25;;;;;;;;;;;;;;;18.81;25.65;96955.56;5073698;28;19932;-61
2020/12/28 07:47:02;;;;;;;;;;;;;;;18.81;25.53;96961.88;5073509;28;19924;-61
2020/12/28 07:49:29;;;;;;;;;;;;;;;18.84;25.55;96965.91;5055858;28;19924;-63
2020/12/28 07:52:11;;;;;;;;;;;;;;;18.86;25.56;96967.16;5073702;28;19928;-60
2020/12/28 07:55:01;;;;;;;;;;;;;;;18.89;25.57;96973.94;5056803;28;19941;-61
2020/12/28 07:57:30;;;;;;;;;;;;;;;18.94;25.44;96980.00;5073384;28;19985;-60
2020/12/28 07:59:59;;;;;;;;;;;;;;;19.02;25.45;96983.78;5054999;28;19950;-61
2020/12/28 08:02:44;;;;;;;;;;;;;;;19.07;25.35;96997.31;5073359;28;19925;-59
2020/12/28 08:05:11;;;;;;;;;;;;;;;19.21;25.27;96985.88;5073312;28;20011;-61
2020/12/28 08:07:37;;;;;;;;;;;;;;;19.28;25.18;96983.34;5055596;28;19928;-62
2020/12/28 08:10:10;;;;;;;;;;;;;;;19.30;25.25;96990.13;5055726;28;19982;-61
2020/12/28 08:12:49;;;;;;;;;;;;;;;19.31;25.25;96990.91;5056265;28;19925;-60
2020/12/28 08:15:24;;;;;;;;;;;;;;;19.29;25.13;96995.97;5056480;28;19963;-62
2020/12/28 08:17:50;;;;;;;;;;;;;;;19.27;25.35;96996.34;5055745;28;19925;-60
2020/12/28 08:20:16;;;;;;;;;;;;;;;19.34;25.27;96996.53;5073158;28;19931;-60
2020/12/28 08:22:42;;;;;;;;;;;;;;;19.37;25.20;97000.56;5056012;28;20047;-59
2020/12/28 08:25:10;;;;;;;;;;;;;;;19.41;25.18;97006.97;5055249;28;20378;-62
2020/12/28 08:27:36;;;;;;;;;;;;;;;19.49;25.00;97022.56;5055699;28;19931;-60
2020/12/28 08:30:06;;;;;;;;;;;;;;;19.51;25.09;97027.78;5055651;28;19963;-60
2020/12/28 08:32:33;;;;;;;;;;;;;;;19.51;25.07;97033.31;5056527;28;19931;-61
2020/12/28 08:34:59;;;;;;;;;;;;;;;19.55;25.10;97023.16;5073436;28;19978;-61
2020/12/28 08:37:34;;;;;;;;;;;;;;;19.46;25.17;97020.53;5056002;28;20390;-61
2020/12/28 08:40:02;;;;;;;;;;;;;;;19.50;25.31;97024.19;5072920;28;20014;-61
2020/12/28 08:42:34;;;;;;;;;;;;;;;19.54;25.14;97022.34;5038953;28;19928;-61
2020/12/28 08:45:03;;;;;;;;;;;;;;;19.58;25.18;97022.47;5058306;28;19925;-61
2020/12/28 08:47:29;;;;;;;;;;;;;;;19.59;25.18;97016.59;5054222;28;19944;-61
2020/12/28 08:49:56;;;;;;;;;;;;;;;19.59;25.07;97019.34;5054955;28;20441;-61
2020/12/28 08:52:22;;;;;;;;;;;;;;;19.59;25.14;97021.31;5054961;28;19924;-63
2020/12/28 08:54:52;;;;;;;;;;;;;;;19.56;25.22;97010.97;5073196;28;20344;-61
2020/12/28 08:57:19;;;;;;;;;;;;;;;19.56;25.21;97013.72;5069746;28;19928;-60
2020/12/28 08:59:46;;;;;;;;;;;;;;;19.56;25.34;97002.66;5072749;28;19947;-61
2020/12/28 09:02:15;;;;;;;;;;;;;;;19.60;25.35;97009.09;5072708;28;20099;-60
2020/12/28 09:04:42;;;;;;;;;;;;;;;19.59;25.21;97001.97;5038721;28;19924;-61
2020/12/28 09:07:08;;;;;;;;;;;;;;;19.56;25.33;97005.44;5072616;28;19924;-60
2020/12/28 09:09:34;;;;;;;;;;;;;;;19.55;25.34;97006.59;5076473;28;19971;-61
2020/12/28 09:12:00;;;;;;;;;;;;;;;19.53;25.44;97006.13;5058246;28;19961;-61
2020/12/28 09:14:26;;;;;;;;;;;;;;;19.50;25.36;96995.75;5076969;28;20003;-61
2020/12/28 09:17:12;;;;;;;;;;;;;;;19.51;25.29;97000.16;5076859;28;19930;-62
2020/12/28 09:19:38;;;;;;;;;;;;;;;19.50;25.48;96999.31;5076161;28;19924;-63
2020/12/28 09:22:04;;;;;;;;;;;;;;;19.47;25.39;97007.50;5075531;28;19963;-60
2020/12/28 09:24:30;;;;;;;;;;;;;;;19.48;25.46;97007.16;5075854;28;19931;-61
2020/12/28 09:26:57;;;;;;;;;;;;;;;19.49;25.45;97005.19;5076122;28;19924;-61
2020/12/28 09:29:23;;;;;;;;;;;;;;;19.49;25.50;96996.91;5059012;28;19924;-61
2020/12/28 09:31:49;;;;;;;;;;;;;;;19.55;25.44;97001.06;5058133;28;19993;-61
2020/12/28 09:34:16;;;;;;;;;;;;;;;19.61;25.50;96996.88;5084104;28;20011;-60
2020/12/28 09:36:42;;;;;;;;;;;;;;;19.63;25.27;96991.81;5072884;28;19950;-61
2020/12/28 09:39:08;;;;;;;;;;;;;;;19.61;25.39;96994.94;5072430;28;19931;-60
2020/12/28 09:41:34;;;;;;;;;;;;;;;19.63;25.32;96997.34;5072507;28;19925;-61
2020/12/28 09:44:00;;;;;;;;;;;;;;;19.65;25.38;97000.56;5072993;28;19925;-61
2020/12/28 09:46:27;;;;;;;;;;;;;;;19.65;25.26;96997.78;5038758;28;19933;-61
2020/12/28 09:48:54;;;;;;;;;;;;;;;19.66;25.20;96999.41;5056465;28;19924;-61
2020/12/28 09:51:20;;;;;;;;;;;;;;;19.65;25.36;97000.56;5086447;28;20019;-60
2020/12/28 09:53:46;;;;;;;;;;;;;;;19.63;25.32;97003.66;5081951;28;19946;-61
2020/12/28 09:56:32;;;;;;;;;;;;;;;19.62;25.32;97010.34;5076260;28;19924;-60
2020/12/28 09:58:58;;;;;;;;;;;;;;;19.62;25.39;97006.78;5075955;28;19924;-61
2020/12/28 10:01:25;;;;;;;;;;;;;;;19.61;25.38;97010.69;5075435;28;19924;-61
2020/12/28 10:03:53;;;;;;;;;;;;;;;19.59;25.36;97013.81;5054712;28;19931;-60
2020/12/28 10:06:31;;;;;;;;;;;;;;;19.58;25.42;97005.88;5073317;28;19925;-60
2020/12/28 10:08:58;;;;;;;;;;;;;;;19.60;25.43;97009.09;5072588;28;20398;-60
2020/12/28 10:11:24;;;;;;;;;;;;;;;19.63;25.27;97003.66;5071333;28;19924;-60
2020/12/28 10:13:52;;;;;;;;;;;;;;;19.70;25.24;96998.34;5072102;28;19925;-60
2020/12/28 10:16:20;;;;;;;;;;;;;;;19.76;25.29;97001.63;5054244;28;20011;-62
2020/12/28 10:18:46;;;;;;;;;;;;;;;19.85;25.17;97010.56;5071614;28;19931;-60
2020/12/28 10:21:12;;;;;;;;;;;;;;;19.92;25.03;97009.94;5071533;28;19929;-61
2020/12/28 10:23:39;;;;;;;;;;;;;;;19.98;24.93;97012.09;5073576;28;20310;-61
2020/12/28 10:26:06;;;;;;;;;;;;;;;20.05;24.99;97014.25;5075155;28;19952;-62
2020/12/28 10:28:35;;;;;;;;;;;;;;;20.07;24.75;97004.44;5075294;28;19956;-61
2020/12/28 10:31:01;;;;;;;;;;;;;;;20.04;24.91;96994.09;5075191;28;19925;-61
2020/12/28 10:33:28;;;;;;;;;;;;;;;20.00;24.92;96993.19;5057875;28;19971;-61
2020/12/28 10:35:54;;;;;;;;;;;;;;;20.02;24.92;96992.84;5075224;28;19944;-61
2020/12/28 10:38:20;;;;;;;;;;;;;;;20.01;24.79;96989.28;5074762;28;19940;-64
2020/12/28 10:40:46;;;;;;;;;;;;;;;20.00;25.07;96987.66;5074987;28;19928;-61
2020/12/28 10:43:13;;;;;;;;;;;;;;;20.05;24.92;96981.88;5075024;28;20039;-61
2020/12/28 10:45:39;;;;;;;;;;;;;;;20.19;24.70;96980.59;5075175;28;19925;-61
2020/12/28 10:48:06;;;;;;;;;;;;;;;20.48;24.37;96974.59;5057198;28;19924;-61
2020/12/28 10:50:32;;;;;;;;;;;;;;;20.68;23.87;96964.41;5073487;28;19979;-61
2020/12/28 10:52:58;;;;;;;;;;;;;;;20.81;23.98;96965.03;5076920;28;19972;-61
2020/12/28 10:55:24;;;;;;;;;;;;;;;20.80;23.75;96968.97;5067425;28;20005;-61
2020/12/28 10:57:50;;;;;;;;;;;;;;;20.73;23.79;96956.63;5062378;28;19925;-61
2020/12/28 11:00:17;;;;;;;;;;;;;;;20.81;23.92;96962.28;5067903;28;20447;-60
2020/12/28 11:02:43;;;;;;;;;;;;;;;20.85;23.76;96963.16;5074003;28;19995;-61
2020/12/28 11:05:09;;;;;;;;;;;;;;;20.89;23.91;96964.03;5074416;28;19974;-62
2020/12/28 11:07:35;;;;;;;;;;;;;;;20.88;24.10;96962.44;5062031;28;19924;-60
2020/12/28 11:10:02;;;;;;;;;;;;;;;21.11;24.05;96971.66;5072680;28;19978;-61
2020/12/28 11:12:28;;;;;;;;;;;;;;;21.35;23.48;96965.03;5067772;22;19926;-67
2020/12/28 11:14:54;;;;;;;;;;;;;;;21.55;23.24;96955.50;5050722;28;19933;-66
2020/12/28 11:17:20;;;;;;;;;;;;;;;21.71;23.24;96952.63;5034809;28;20445;-66
2020/12/28 11:19:46;;;;;;;;;;;;;;;21.76;22.85;96957.88;5052748;28;19970;-67
2020/12/28 11:22:13;;;;;;;;;;;;;;;21.70;23.28;96954.59;5035037;28;19925;-68
2020/12/28 11:24:39;;;;;;;;;;;;;;;21.78;23.36;96947.22;5052889;28;19928;-68
2020/12/28 11:27:05;;;;;;;;;;;;;;;21.52;23.70;96942.38;5045176;28;19928;-69
2020/12/28 11:29:31;;;;;;;;;;;;;;;21.33;23.82;96940.47;5035064;28;19931;-66
2020/12/28 11:31:58;;;;;;;;;;;;;;;21.25;24.05;96944.25;5052778;28;20468;-68
2020/12/28 11:34:24;;;;;;;;;;;;;;;21.21;24.27;96943.38;5018531;28;19925;-66
2020/12/28 11:36:50;;;;;;;;;;;;;;;21.28;24.35;96932.44;5034810;28;19925;-68
2020/12/28 11:39:16;;;;;;;;;;;;;;;21.54;24.17;96928.16;5035016;28;19925;-68
2020/12/28 11:41:43;;;;;;;;;;;;;;;21.78;23.76;96927.00;5052571;28;20365;-68
2020/12/28 11:44:11;;;;;;;;;;;;;;;21.85;23.43;96927.13;5052711;28;20474;-68
2020/12/28 11:46:37;;;;;;;;;;;;;;;21.77;23.85;96933.72;5034268;28;19932;-67
2020/12/28 11:49:03;;;;;;;;;;;;;;;21.67;23.65;96935.13;5034641;28;20016;-67
2020/12/28 11:51:30;;;;;;;;;;;;;;;21.64;23.85;96933.09;5052208;28;19936;-67
2020/12/28 11:53:56;;;;;;;;;;;;;;;21.69;23.83;96930.81;5034457;28;19968;-67
2020/12/28 11:56:22;;;;;;;;;;;;;;;21.74;23.72;96938.03;5051303;28;19932;-68
2020/12/28 11:58:49;;;;;;;;;;;;;;;21.69;23.52;96930.81;5049798;28;20271;-67
2020/12/28 12:01:19;;;;;;;;;;;;;;;21.69;23.71;96930.03;5050577;28;19965;-68
2020/12/28 12:03:49;;;;;;;;;;;;;;;21.49;24.00;96932.03;5028525;28;19929;-67
2020/12/28 12:06:16;;;;;;;;;;;;;;;21.48;24.03;96927.69;5021453;28;20448;-69
2020/12/28 12:11:30;;;;;;;;;;;;;;;21.51;24.20;96926.13;5036912;28;19964;-69
2020/12/28 12:13:56;;;;;;;;;;;;;;;21.49;24.25;96928.44;5034615;28;19932;-69
2020/12/28 12:16:23;;;;;;;;;;;;;;;21.62;24.12;96935.44;5018261;28;20044;-68
2020/12/28 12:18:50;;;;;;;;;;;;;;;21.72;24.05;96934.84;5034205;28;19924;-68
2020/12/28 12:21:16;;;;;;;;;;;;;;;21.68;24.18;96939.50;5034308;28;19928;-68
2020/12/28 12:23:42;;;;;;;;;;;;;;;21.61;24.33;96942.16;5014986;28;19925;-68
2020/12/28 12:26:09;;;;;;;;;;;;;;;21.47;24.34;96939.13;5030580;28;19932;-69
2020/12/28 12:28:35;;;;;;;;;;;;;;;21.37;24.58;96935.78;5017912;28;19952;-70
2020/12/28 12:31:01;;;;;;;;;;;;;;;21.32;24.70;96938.84;5033963;28;19975;-69
2020/12/28 12:33:27;;;;;;;;;;;;;;;21.28;24.87;96943.53;5034272;28;19925;-68
2020/12/28 12:35:53;;;;;;;;;;;;;;;21.26;24.84;96948.63;5017816;28;19925;-68
2020/12/28 12:38:20;;;;;;;;;;;;;;;21.23;24.85;96941.03;5051471;28;19925;-67
2020/12/28 12:40:46;;;;;;;;;;;;;;;21.22;24.91;96938.63;5051379;28;19929;-67
2020/12/28 12:43:12;;;;;;;;;;;;;;;21.19;25.17;96937.38;5034170;28;19929;-66
2020/12/28 12:45:40;;;;;;;;;;;;;;;21.14;25.04;96937.66;5051426;28;19924;-67
2020/12/28 12:48:06;;;;;;;;;;;;;;;21.06;25.10;96942.28;4997556;28;20012;-67
2020/12/28 12:50:32;;;;;;;;;;;;;;;20.98;25.12;96934.19;5051368;28;19955;-68
2020/12/28 12:52:58;;;;;;;;;;;;;;;20.70;25.54;96943.50;5051222;28;19928;-67
2020/12/28 12:55:24;;;;;;;;;;;;;;;20.68;25.42;96948.59;5032910;28;19970;-67
2020/12/28 12:57:51;;;;;;;;;;;;;;;20.73;25.59;96941.97;5033562;28;19956;-67
2020/12/28 13:00:20;;;;;;;;;;;;;;;20.71;25.47;96942.34;5033336;28;19931;-67
2020/12/28 13:02:46;;;;;;;;;;;;;;;20.69;25.52;96946.63;5033777;28;19924;-68
2020/12/28 13:05:12;;;;;;;;;;;;;;;20.60;25.68;96957.88;5051260;28;20318;-69